sensor_id;sensor_type;location;lat;lon;timestamp;pressure;altitude;pressure_sealevel;temperature;humidity
596;BME280;19946;49.306;11.350;2023-02-19T00:02:12;96642.59;;;6.26;100.00
596;BME280;19946;49.306;11.350;2023-02-19T00:05:13;96672.88;;;6.48;100.00
596;BME280;19946;49.306;11.350;2023-02-19T00:08:13;96690.91;;;6.60;100.00
596;BME280;19946;49.306;11.350;2023-02-19T00:11:16;96681.72;;;6.44;100.00
596;BME280;19946;49.306;11.350;2023-02-19T00:14:19;96690.50;;;6.54;100.00
596;BME280;19946;49.306;11.350;2023-02-19T00:17:20;96631.13;;;6.17;100.00
596;BME280;19946;49.306;11.350;2023-02-19T00:20:20;96609.59;;;6.06;100.00
596;BME280;19946;49.306;11.350;2023-02-19T00:23:20;96603.94;;;6.01;100.00
596;BME280;19946;49.306;11.350;2023-02-19T00:26:21;96681.38;;;6.36;100.00
596;BME280;19946;49.306;11.350;2023-02-19T00:29:22;96679.84;;;6.33;100.00
596;BME280;19946;49.306;11.350;2023-02-19T00:32:24;96628.63;;;6.03;100.00
596;BME280;19946;49.306;11.350;2023-02-19T00:35:24;96666.56;;;6.27;100.00
596;BME280;19946;49.306;11.350;2023-02-19T00:38:24;96560.28;;;5.60;100.00
596;BME280;19946;49.306;11.350;2023-02-19T00:41:25;96569.00;;;5.57;100.00
596;BME280;19946;49.306;11.350;2023-02-19T00:44:25;96556.56;;;5.51;100.00
596;BME280;19946;49.306;11.350;2023-02-19T00:47:26;96618.28;;;5.91;100.00
596;BME280;19946;49.306;11.350;2023-02-19T00:50:26;96683.00;;;6.24;100.00
596;BME280;19946;49.306;11.350;2023-02-19T00:53:26;96664.03;;;6.12;100.00
596;BME280;19946;49.306;11.350;2023-02-19T00:56:27;96687.94;;;6.27;100.00
596;BME280;19946;49.306;11.350;2023-02-19T00:59:27;96606.56;;;5.72;100.00
596;BME280;19946;49.306;11.350;2023-02-19T01:02:28;96675.28;;;6.24;100.00
596;BME280;19946;49.306;11.350;2023-02-19T01:05:28;96642.00;;;6.08;100.00
596;BME280;19946;49.306;11.350;2023-02-19T01:08:29;96606.91;;;5.80;100.00
596;BME280;19946;49.306;11.350;2023-02-19T01:11:30;96675.66;;;6.18;100.00
596;BME280;19946;49.306;11.350;2023-02-19T01:14:31;96659.63;;;6.14;100.00
596;BME280;19946;49.306;11.350;2023-02-19T01:17:34;96623.75;;;5.84;100.00
596;BME280;19946;49.306;11.350;2023-02-19T01:20:41;96650.09;;;6.02;100.00
596;BME280;19946;49.306;11.350;2023-02-19T01:23:41;96626.16;;;6.02;100.00
596;BME280;19946;49.306;11.350;2023-02-19T01:26:43;96570.78;;;5.69;100.00
596;BME280;19946;49.306;11.350;2023-02-19T01:29:43;96584.00;;;5.63;100.00
596;BME280;19946;49.306;11.350;2023-02-19T01:32:43;96615.72;;;5.76;100.00
596;BME280;19946;49.306;11.350;2023-02-19T01:35:44;96641.31;;;5.92;100.00
596;BME280;19946;49.306;11.350;2023-02-19T01:38:45;96559.53;;;5.58;100.00
596;BME280;19946;49.306;11.350;2023-02-19T01:41:46;96576.22;;;5.65;100.00
596;BME280;19946;49.306;11.350;2023-02-19T01:48:11;96507.31;;;5.30;100.00
596;BME280;19946;49.306;11.350;2023-02-19T01:51:13;96608.75;;;5.93;100.00
596;BME280;19946;49.306;11.350;2023-02-19T01:54:18;96583.69;;;5.82;100.00
596;BME280;19946;49.306;11.350;2023-02-19T01:57:22;96530.22;;;5.47;100.00
596;BME280;19946;49.306;11.350;2023-02-19T02:00:24;96594.16;;;5.93;100.00
596;BME280;19946;49.306;11.350;2023-02-19T02:03:27;96587.13;;;5.95;100.00
596;BME280;19946;49.306;11.350;2023-02-19T02:06:38;96548.00;;;5.77;100.00
596;BME280;19946;49.306;11.350;2023-02-19T02:09:40;96502.97;;;5.45;100.00
596;BME280;19946;49.306;11.350;2023-02-19T02:12:59;96565.25;;;5.90;100.00
596;BME280;19946;49.306;11.350;2023-02-19T02:16:14;96506.81;;;5.52;100.00
596;BME280;19946;49.306;11.350;2023-02-19T02:22:32;96505.69;;;5.56;100.00
596;BME280;19946;49.306;11.350;2023-02-19T02:25:56;96540.94;;;5.81;100.00
596;BME280;19946;49.306;11.350;2023-02-19T02:32:17;96544.84;;;5.86;100.00
596;BME280;19946;49.306;11.350;2023-02-19T02:35:24;96505.50;;;5.59;100.00
596;BME280;19946;49.306;11.350;2023-02-19T02:38:29;96513.72;;;5.64;100.00
596;BME280;19946;49.306;11.350;2023-02-19T02:41:32;96574.72;;;6.02;100.00
596;BME280;19946;49.306;11.350;2023-02-19T02:44:34;96486.97;;;5.54;100.00
596;BME280;19946;49.306;11.350;2023-02-19T02:47:50;96497.50;;;5.64;100.00
596;BME280;19946;49.306;11.350;2023-02-19T02:51:19;96509.13;;;5.69;100.00
596;BME280;19946;49.306;11.350;2023-02-19T02:54:41;96558.16;;;6.06;100.00
596;BME280;19946;49.306;11.350;2023-02-19T02:58:01;96444.69;;;5.33;100.00
596;BME280;19946;49.306;11.350;2023-02-19T03:01:20;96514.09;;;5.85;100.00
596;BME280;19946;49.306;11.350;2023-02-19T03:04:47;96512.72;;;5.94;100.00
596;BME280;19946;49.306;11.350;2023-02-19T03:08:16;96544.72;;;6.02;100.00
596;BME280;19946;49.306;11.350;2023-02-19T03:11:20;96439.88;;;5.41;100.00
596;BME280;19946;49.306;11.350;2023-02-19T03:14:47;96486.19;;;5.66;100.00
596;BME280;19946;49.306;11.350;2023-02-19T03:18:10;96555.41;;;6.09;100.00
596;BME280;19946;49.306;11.350;2023-02-19T03:21:32;96458.00;;;5.52;100.00
596;BME280;19946;49.306;11.350;2023-02-19T03:24:37;96493.81;;;5.68;100.00
596;BME280;19946;49.306;11.350;2023-02-19T03:28:00;96527.59;;;5.89;100.00
596;BME280;19946;49.306;11.350;2023-02-19T03:31:02;96482.19;;;5.62;100.00
596;BME280;19946;49.306;11.350;2023-02-19T03:34:07;96524.03;;;5.91;100.00
596;BME280;19946;49.306;11.350;2023-02-19T03:37:14;96378.81;;;5.06;100.00
596;BME280;19946;49.306;11.350;2023-02-19T03:40:16;96485.69;;;5.74;100.00
596;BME280;19946;49.306;11.350;2023-02-19T03:46:38;96529.56;;;5.98;100.00
596;BME280;19946;49.306;11.350;2023-02-19T03:49:52;96546.84;;;5.96;100.00
596;BME280;19946;49.306;11.350;2023-02-19T03:53:20;96467.06;;;5.58;100.00
596;BME280;19946;49.306;11.350;2023-02-19T03:56:32;96512.25;;;5.87;100.00
596;BME280;19946;49.306;11.350;2023-02-19T03:59:40;96512.00;;;5.92;100.00
596;BME280;19946;49.306;11.350;2023-02-19T04:06:30;96461.00;;;5.59;100.00
596;BME280;19946;49.306;11.350;2023-02-19T04:09:36;96467.94;;;5.71;100.00
596;BME280;19946;49.306;11.350;2023-02-19T04:12:46;96456.59;;;5.61;100.00
596;BME280;19946;49.306;11.350;2023-02-19T04:15:49;96527.81;;;5.98;100.00
596;BME280;19946;49.306;11.350;2023-02-19T04:18:53;96523.84;;;5.94;100.00
596;BME280;19946;49.306;11.350;2023-02-19T04:21:57;96409.94;;;5.14;100.00
596;BME280;19946;49.306;11.350;2023-02-19T04:24:58;96501.28;;;5.58;100.00
596;BME280;19946;49.306;11.350;2023-02-19T04:28:00;96550.78;;;5.87;100.00
596;BME280;19946;49.306;11.350;2023-02-19T04:31:01;96491.38;;;5.52;100.00
596;BME280;19946;49.306;11.350;2023-02-19T04:34:02;96512.06;;;5.63;100.00
596;BME280;19946;49.306;11.350;2023-02-19T04:37:03;96567.63;;;5.93;100.00
596;BME280;19946;49.306;11.350;2023-02-19T04:40:04;96544.59;;;5.77;100.00
596;BME280;19946;49.306;11.350;2023-02-19T04:43:05;96510.66;;;5.59;100.00
596;BME280;19946;49.306;11.350;2023-02-19T04:46:05;96550.56;;;5.77;100.00
596;BME280;19946;49.306;11.350;2023-02-19T04:49:05;96557.44;;;5.91;100.00
596;BME280;19946;49.306;11.350;2023-02-19T04:52:06;96577.16;;;5.91;100.00
596;BME280;19946;49.306;11.350;2023-02-19T04:55:07;96553.69;;;5.82;100.00
596;BME280;19946;49.306;11.350;2023-02-19T04:58:07;96568.88;;;5.85;100.00
596;BME280;19946;49.306;11.350;2023-02-19T05:01:08;96570.03;;;5.81;100.00
596;BME280;19946;49.306;11.350;2023-02-19T05:04:08;96514.19;;;5.44;100.00
596;BME280;19946;49.306;11.350;2023-02-19T05:07:09;96559.28;;;5.75;100.00
596;BME280;19946;49.306;11.350;2023-02-19T05:10:09;96562.69;;;5.75;100.00
596;BME280;19946;49.306;11.350;2023-02-19T05:13:10;96512.25;;;5.47;100.00
596;BME280;19946;49.306;11.350;2023-02-19T05:16:13;96509.94;;;5.43;100.00
596;BME280;19946;49.306;11.350;2023-02-19T05:19:15;96539.81;;;5.58;100.00
596;BME280;19946;49.306;11.350;2023-02-19T05:22:15;96567.22;;;5.72;100.00
596;BME280;19946;49.306;11.350;2023-02-19T05:25:15;96557.63;;;5.61;100.00
596;BME280;19946;49.306;11.350;2023-02-19T05:28:16;96536.38;;;5.45;100.00
596;BME280;19946;49.306;11.350;2023-02-19T05:31:18;96517.31;;;5.35;100.00
596;BME280;19946;49.306;11.350;2023-02-19T05:34:18;96504.41;;;5.36;100.00
596;BME280;19946;49.306;11.350;2023-02-19T05:37:19;96513.28;;;5.31;100.00
596;BME280;19946;49.306;11.350;2023-02-19T05:40:19;96506.78;;;5.39;100.00
596;BME280;19946;49.306;11.350;2023-02-19T05:43:19;96551.16;;;5.68;100.00
596;BME280;19946;49.306;11.350;2023-02-19T05:46:22;96540.56;;;5.60;100.00
596;BME280;19946;49.306;11.350;2023-02-19T05:49:23;96449.75;;;5.07;100.00
596;BME280;19946;49.306;11.350;2023-02-19T05:52:23;96545.09;;;5.69;100.00
596;BME280;19946;49.306;11.350;2023-02-19T05:55:24;96572.34;;;5.72;100.00
596;BME280;19946;49.306;11.350;2023-02-19T05:58:25;96567.59;;;5.66;100.00
596;BME280;19946;49.306;11.350;2023-02-19T06:01:27;96572.34;;;5.72;100.00
596;BME280;19946;49.306;11.350;2023-02-19T06:04:27;96572.44;;;5.70;100.00
596;BME280;19946;49.306;11.350;2023-02-19T06:07:32;96576.06;;;5.80;100.00
596;BME280;19946;49.306;11.350;2023-02-19T06:10:33;96572.59;;;5.81;100.00
596;BME280;19946;49.306;11.350;2023-02-19T06:13:33;96523.84;;;5.53;100.00
596;BME280;19946;49.306;11.350;2023-02-19T06:16:34;96521.50;;;5.50;100.00
596;BME280;19946;49.306;11.350;2023-02-19T06:19:34;96547.53;;;5.58;100.00
596;BME280;19946;49.306;11.350;2023-02-19T06:22:34;96520.97;;;5.45;100.00
596;BME280;19946;49.306;11.350;2023-02-19T06:25:34;96494.88;;;5.24;100.00
596;BME280;19946;49.306;11.350;2023-02-19T06:28:36;96523.72;;;5.42;100.00
596;BME280;19946;49.306;11.350;2023-02-19T06:31:36;96584.16;;;5.74;100.00
596;BME280;19946;49.306;11.350;2023-02-19T06:34:36;96598.66;;;5.90;100.00
596;BME280;19946;49.306;11.350;2023-02-19T06:37:37;96593.16;;;5.81;100.00
596;BME280;19946;49.306;11.350;2023-02-19T06:40:37;96590.03;;;5.76;100.00
596;BME280;19946;49.306;11.350;2023-02-19T06:43:37;96594.72;;;5.84;100.00
596;BME280;19946;49.306;11.350;2023-02-19T06:46:38;96586.47;;;5.65;100.00
596;BME280;19946;49.306;11.350;2023-02-19T06:49:39;96563.44;;;5.50;100.00
596;BME280;19946;49.306;11.350;2023-02-19T06:52:39;96556.00;;;5.46;100.00
596;BME280;19946;49.306;11.350;2023-02-19T06:55:39;96527.44;;;5.24;100.00
596;BME280;19946;49.306;11.350;2023-02-19T06:58:40;96574.31;;;5.54;100.00
596;BME280;19946;49.306;11.350;2023-02-19T07:01:40;96637.94;;;5.92;100.00
596;BME280;19946;49.306;11.350;2023-02-19T07:04:41;96639.81;;;6.02;100.00
596;BME280;19946;49.306;11.350;2023-02-19T07:07:44;96622.16;;;5.83;100.00
596;BME280;19946;49.306;11.350;2023-02-19T07:10:45;96648.63;;;5.98;100.00
596;BME280;19946;49.306;11.350;2023-02-19T07:13:45;96590.47;;;5.56;100.00
596;BME280;19946;49.306;11.350;2023-02-19T07:16:46;96649.88;;;5.93;100.00
596;BME280;19946;49.306;11.350;2023-02-19T07:19:47;96655.44;;;5.99;100.00
596;BME280;19946;49.306;11.350;2023-02-19T07:22:47;96646.47;;;5.92;100.00
596;BME280;19946;49.306;11.350;2023-02-19T07:25:48;96669.84;;;6.02;100.00
596;BME280;19946;49.306;11.350;2023-02-19T07:28:49;96595.56;;;5.70;100.00
596;BME280;19946;49.306;11.350;2023-02-19T07:31:50;96598.75;;;5.74;100.00
596;BME280;19946;49.306;11.350;2023-02-19T07:34:50;96594.56;;;5.73;100.00
596;BME280;19946;49.306;11.350;2023-02-19T07:37:50;96658.28;;;6.21;100.00
596;BME280;19946;49.306;11.350;2023-02-19T07:40:52;96595.63;;;5.83;100.00
596;BME280;19946;49.306;11.350;2023-02-19T07:43:54;96650.56;;;6.21;100.00
596;BME280;19946;49.306;11.350;2023-02-19T07:46:54;96638.44;;;5.97;100.00
596;BME280;19946;49.306;11.350;2023-02-19T07:49:55;96662.25;;;6.27;100.00
596;BME280;19946;49.306;11.350;2023-02-19T07:52:55;96547.19;;;5.50;100.00
596;BME280;19946;49.306;11.350;2023-02-19T07:56:04;96595.31;;;5.87;100.00
596;BME280;19946;49.306;11.350;2023-02-19T07:59:04;96680.34;;;6.38;100.00
596;BME280;19946;49.306;11.350;2023-02-19T08:02:14;96620.69;;;5.94;100.00
596;BME280;19946;49.306;11.350;2023-02-19T08:05:39;96594.72;;;5.84;100.00
596;BME280;19946;49.306;11.350;2023-02-19T08:08:40;96621.97;;;6.13;100.00
596;BME280;19946;49.306;11.350;2023-02-19T08:11:40;96691.59;;;6.50;100.00
596;BME280;19946;49.306;11.350;2023-02-19T08:14:59;96677.72;;;6.52;100.00
596;BME280;19946;49.306;11.350;2023-02-19T08:17:59;96686.34;;;6.51;100.00
596;BME280;19946;49.306;11.350;2023-02-19T08:21:00;96688.09;;;6.51;100.00
596;BME280;19946;49.306;11.350;2023-02-19T08:24:00;96694.19;;;6.63;100.00
596;BME280;19946;49.306;11.350;2023-02-19T08:27:00;96582.31;;;5.91;100.00
596;BME280;19946;49.306;11.350;2023-02-19T08:30:01;96655.66;;;6.36;100.00
596;BME280;19946;49.306;11.350;2023-02-19T08:33:01;96681.66;;;6.58;100.00
596;BME280;19946;49.306;11.350;2023-02-19T08:36:06;96672.19;;;6.58;100.00
596;BME280;19946;49.306;11.350;2023-02-19T08:39:07;96715.66;;;6.76;100.00
596;BME280;19946;49.306;11.350;2023-02-19T08:42:08;96694.53;;;6.71;100.00
596;BME280;19946;49.306;11.350;2023-02-19T08:45:08;96649.88;;;6.32;100.00
596;BME280;19946;49.306;11.350;2023-02-19T08:48:08;96636.81;;;6.22;100.00
596;BME280;19946;49.306;11.350;2023-02-19T08:51:10;96697.91;;;6.58;100.00
596;BME280;19946;49.306;11.350;2023-02-19T08:54:10;96699.75;;;6.56;100.00
596;BME280;19946;49.306;11.350;2023-02-19T08:57:11;96726.25;;;6.84;100.00
596;BME280;19946;49.306;11.350;2023-02-19T09:00:12;96665.56;;;6.42;100.00
596;BME280;19946;49.306;11.350;2023-02-19T09:03:12;96683.06;;;6.49;100.00
596;BME280;19946;49.306;11.350;2023-02-19T09:06:18;96693.03;;;6.41;100.00
596;BME280;19946;49.306;11.350;2023-02-19T09:09:19;96669.22;;;6.25;100.00
596;BME280;19946;49.306;11.350;2023-02-19T09:12:23;96735.38;;;6.63;100.00
596;BME280;19946;49.306;11.350;2023-02-19T09:15:23;96680.13;;;6.29;100.00
596;BME280;19946;49.306;11.350;2023-02-19T09:18:24;96750.34;;;6.83;100.00
596;BME280;19946;49.306;11.350;2023-02-19T09:21:25;96749.44;;;6.84;100.00
596;BME280;19946;49.306;11.350;2023-02-19T09:24:25;96680.00;;;6.57;100.00
596;BME280;19946;49.306;11.350;2023-02-19T09:27:29;96770.81;;;7.11;100.00
596;BME280;19946;49.306;11.350;2023-02-19T09:30:32;96778.44;;;7.13;100.00
596;BME280;19946;49.306;11.350;2023-02-19T09:33:32;96763.69;;;7.15;100.00
596;BME280;19946;49.306;11.350;2023-02-19T09:36:33;96697.75;;;6.87;100.00
596;BME280;19946;49.306;11.350;2023-02-19T09:39:34;96714.44;;;7.07;100.00
596;BME280;19946;49.306;11.350;2023-02-19T09:42:38;96690.13;;;6.85;100.00
596;BME280;19946;49.306;11.350;2023-02-19T09:45:40;96718.38;;;7.12;100.00
596;BME280;19946;49.306;11.350;2023-02-19T09:48:40;96733.41;;;7.06;100.00
596;BME280;19946;49.306;11.350;2023-02-19T09:51:45;96767.03;;;7.42;100.00
596;BME280;19946;49.306;11.350;2023-02-19T09:54:48;96729.28;;;7.03;100.00
596;BME280;19946;49.306;11.350;2023-02-19T09:57:49;96699.28;;;6.77;100.00
596;BME280;19946;49.306;11.350;2023-02-19T10:00:52;96704.13;;;6.69;100.00
596;BME280;19946;49.306;11.350;2023-02-19T10:03:53;96800.38;;;7.18;100.00
596;BME280;19946;49.306;11.350;2023-02-19T10:06:55;96712.03;;;6.66;100.00
596;BME280;19946;49.306;11.350;2023-02-19T10:13:21;96790.09;;;7.31;100.00
596;BME280;19946;49.306;11.350;2023-02-19T10:16:25;96786.50;;;7.33;100.00
596;BME280;19946;49.306;11.350;2023-02-19T10:19:26;96806.19;;;7.35;100.00
596;BME280;19946;49.306;11.350;2023-02-19T10:22:26;96756.47;;;7.07;100.00
596;BME280;19946;49.306;11.350;2023-02-19T10:25:27;96774.63;;;7.18;100.00
596;BME280;19946;49.306;11.350;2023-02-19T10:28:30;96769.38;;;7.20;100.00
596;BME280;19946;49.306;11.350;2023-02-19T10:31:32;96770.38;;;7.05;100.00
596;BME280;19946;49.306;11.350;2023-02-19T10:34:33;96804.41;;;7.22;100.00
596;BME280;19946;49.306;11.350;2023-02-19T10:37:34;96763.75;;;6.88;100.00
596;BME280;19946;49.306;11.350;2023-02-19T10:40:43;96785.13;;;7.03;100.00
596;BME280;19946;49.306;11.350;2023-02-19T10:43:52;96729.63;;;6.72;100.00
596;BME280;19946;49.306;11.350;2023-02-19T10:46:56;96758.94;;;6.96;100.00
596;BME280;19946;49.306;11.350;2023-02-19T10:49:58;96824.81;;;7.38;100.00
596;BME280;19946;49.306;11.350;2023-02-19T10:52:59;96833.34;;;7.26;100.00
596;BME280;19946;49.306;11.350;2023-02-19T10:56:24;96760.25;;;6.89;100.00
596;BME280;19946;49.306;11.350;2023-02-19T10:59:27;96716.34;;;6.65;100.00
596;BME280;19946;49.306;11.350;2023-02-19T11:02:29;96759.63;;;6.85;100.00
596;BME280;19946;49.306;11.350;2023-02-19T11:05:30;96805.63;;;7.17;100.00
596;BME280;19946;49.306;11.350;2023-02-19T11:08:47;96830.81;;;7.39;100.00
596;BME280;19946;49.306;11.350;2023-02-19T11:11:51;96827.31;;;7.40;100.00
596;BME280;19946;49.306;11.350;2023-02-19T11:14:52;96775.81;;;6.87;100.00
596;BME280;19946;49.306;11.350;2023-02-19T11:17:56;96801.47;;;6.89;100.00
596;BME280;19946;49.306;11.350;2023-02-19T11:21:00;96705.59;;;6.19;100.00
596;BME280;19946;49.306;11.350;2023-02-19T11:24:01;96807.09;;;6.81;100.00
596;BME280;19946;49.306;11.350;2023-02-19T11:27:06;96759.03;;;6.55;100.00
596;BME280;19946;49.306;11.350;2023-02-19T11:30:36;96832.53;;;7.13;100.00
596;BME280;19946;49.306;11.350;2023-02-19T11:33:43;96797.03;;;6.91;100.00
596;BME280;19946;49.306;11.350;2023-02-19T11:36:44;96781.25;;;6.83;100.00
596;BME280;19946;49.306;11.350;2023-02-19T11:39:47;96849.22;;;7.20;100.00
596;BME280;19946;49.306;11.350;2023-02-19T11:43:01;96805.78;;;6.88;100.00
596;BME280;19946;49.306;11.350;2023-02-19T11:49:39;96823.47;;;6.80;100.00
596;BME280;19946;49.306;11.350;2023-02-19T11:52:59;96854.38;;;6.93;100.00
596;BME280;19946;49.306;11.350;2023-02-19T11:56:17;96866.59;;;6.77;100.00
596;BME280;19946;49.306;11.350;2023-02-19T11:59:40;96868.00;;;6.54;100.00
596;BME280;19946;49.306;11.350;2023-02-19T12:03:00;96862.06;;;6.39;100.00
596;BME280;19946;49.306;11.350;2023-02-19T12:09:24;96868.50;;;6.18;100.00
596;BME280;19946;49.306;11.350;2023-02-19T12:16:05;96871.91;;;6.18;100.00
596;BME280;19946;49.306;11.350;2023-02-19T12:22:26;96884.84;;;6.31;100.00
596;BME280;19946;49.306;11.350;2023-02-19T12:25:38;96894.47;;;6.56;100.00
596;BME280;19946;49.306;11.350;2023-02-19T12:31:59;96886.56;;;6.59;100.00
596;BME280;19946;49.306;11.350;2023-02-19T12:35:24;96875.72;;;6.54;100.00
596;BME280;19946;49.306;11.350;2023-02-19T12:38:34;96819.28;;;6.10;100.00
596;BME280;19946;49.306;11.350;2023-02-19T12:42:09;96877.38;;;6.55;100.00
596;BME280;19946;49.306;11.350;2023-02-19T12:45:18;96872.16;;;6.56;100.00
596;BME280;19946;49.306;11.350;2023-02-19T12:48:36;96867.63;;;6.60;100.00
596;BME280;19946;49.306;11.350;2023-02-19T12:51:44;96801.97;;;6.40;100.00
596;BME280;19946;49.306;11.350;2023-02-19T12:54:49;96861.00;;;6.70;100.00
596;BME280;19946;49.306;11.350;2023-02-19T12:57:51;96871.38;;;6.69;100.00
596;BME280;19946;49.306;11.350;2023-02-19T13:00:54;96874.31;;;6.63;100.00
596;BME280;19946;49.306;11.350;2023-02-19T13:04:17;96846.25;;;6.45;100.00
596;BME280;19946;49.306;11.350;2023-02-19T13:07:50;96867.78;;;6.71;100.00
596;BME280;19946;49.306;11.350;2023-02-19T13:10:59;96863.56;;;6.97;100.00
596;BME280;19946;49.306;11.350;2023-02-19T13:14:17;96737.47;;;6.43;100.00
596;BME280;19946;49.306;11.350;2023-02-19T13:17:40;96861.69;;;7.13;100.00
596;BME280;19946;49.306;11.350;2023-02-19T13:20:43;96790.00;;;6.80;100.00
596;BME280;19946;49.306;11.350;2023-02-19T13:23:45;96848.66;;;7.42;100.00
596;BME280;19946;49.306;11.350;2023-02-19T13:27:06;96774.81;;;7.15;100.00
596;BME280;19946;49.306;11.350;2023-02-19T13:30:39;96843.28;;;7.57;100.00
596;BME280;19946;49.306;11.350;2023-02-19T13:33:59;96866.16;;;7.37;100.00
596;BME280;19946;49.306;11.350;2023-02-19T13:37:05;96857.28;;;7.28;100.00
596;BME280;19946;49.306;11.350;2023-02-19T13:40:21;96858.06;;;7.16;100.00
596;BME280;19946;49.306;11.350;2023-02-19T13:43:28;96806.47;;;6.78;100.00
596;BME280;19946;49.306;11.350;2023-02-19T13:46:39;96865.19;;;7.12;100.00
596;BME280;19946;49.306;11.350;2023-02-19T13:49:41;96844.13;;;7.06;100.00
596;BME280;19946;49.306;11.350;2023-02-19T13:52:41;96796.34;;;6.75;100.00
596;BME280;19946;49.306;11.350;2023-02-19T13:58:57;96882.91;;;6.90;100.00
596;BME280;19946;49.306;11.350;2023-02-19T14:05:08;96906.66;;;6.81;100.00
596;BME280;19946;49.306;11.350;2023-02-19T14:08:09;96894.41;;;6.84;100.00
596;BME280;19946;49.306;11.350;2023-02-19T14:11:09;96897.31;;;6.92;100.00
596;BME280;19946;49.306;11.350;2023-02-19T14:23:36;96787.78;;;6.20;100.00
596;BME280;19946;49.306;11.350;2023-02-19T14:26:37;96856.56;;;6.45;100.00
596;BME280;19946;49.306;11.350;2023-02-19T14:29:39;96916.31;;;7.04;100.00
596;BME280;19946;49.306;11.350;2023-02-19T14:32:40;96897.44;;;6.91;100.00
596;BME280;19946;49.306;11.350;2023-02-19T14:35:43;96855.97;;;6.54;100.00
596;BME280;19946;49.306;11.350;2023-02-19T14:38:47;96903.81;;;6.71;100.00
596;BME280;19946;49.306;11.350;2023-02-19T14:41:52;96930.09;;;6.76;100.00
596;BME280;19946;49.306;11.350;2023-02-19T14:44:59;96933.06;;;6.70;100.00
596;BME280;19946;49.306;11.350;2023-02-19T14:48:00;96872.47;;;6.23;100.00
596;BME280;19946;49.306;11.350;2023-02-19T14:51:05;96928.03;;;6.54;100.00
596;BME280;19946;49.306;11.350;2023-02-19T14:54:12;96857.13;;;6.08;100.00
596;BME280;19946;49.306;11.350;2023-02-19T14:57:18;96946.75;;;6.56;100.00
596;BME280;19946;49.306;11.350;2023-02-19T15:00:27;96888.38;;;6.16;100.00
596;BME280;19946;49.306;11.350;2023-02-19T15:03:35;96948.13;;;6.62;100.00
596;BME280;19946;49.306;11.350;2023-02-19T15:06:36;96958.91;;;6.54;100.00
596;BME280;19946;49.306;11.350;2023-02-19T15:09:43;96828.47;;;5.71;100.00
596;BME280;19946;49.306;11.350;2023-02-19T15:12:47;96973.31;;;6.57;100.00
596;BME280;19946;49.306;11.350;2023-02-19T15:15:49;96878.06;;;6.02;100.00
596;BME280;19946;49.306;11.350;2023-02-19T15:18:51;96953.84;;;6.39;100.00
596;BME280;19946;49.306;11.350;2023-02-19T15:21:52;96813.28;;;5.53;100.00
596;BME280;19946;49.306;11.350;2023-02-19T15:24:54;96949.91;;;6.33;100.00
596;BME280;19946;49.306;11.350;2023-02-19T15:27:54;96914.78;;;6.18;100.00
596;BME280;19946;49.306;11.350;2023-02-19T15:33:58;96947.88;;;6.52;100.00
596;BME280;19946;49.306;11.350;2023-02-19T15:37:01;96816.88;;;5.64;100.00
596;BME280;19946;49.306;11.350;2023-02-19T15:40:05;96889.81;;;5.92;100.00
596;BME280;19946;49.306;11.350;2023-02-19T15:43:19;96943.25;;;6.29;100.00
596;BME280;19946;49.306;11.350;2023-02-19T15:46:23;96916.91;;;6.11;100.00
596;BME280;19946;49.306;11.350;2023-02-19T15:49:29;96983.13;;;6.50;100.00
596;BME280;19946;49.306;11.350;2023-02-19T15:52:38;96969.09;;;6.42;100.00
596;BME280;19946;49.306;11.350;2023-02-19T15:55:42;96710.44;;;4.67;100.00
596;BME280;19946;49.306;11.350;2023-02-19T15:58:48;96914.53;;;5.94;100.00
596;BME280;19946;49.306;11.350;2023-02-19T16:01:50;96893.34;;;5.75;100.00
596;BME280;19946;49.306;11.350;2023-02-19T16:04:51;96909.56;;;5.91;100.00
596;BME280;19946;49.306;11.350;2023-02-19T16:08:05;96828.50;;;5.41;100.00
596;BME280;19946;49.306;11.350;2023-02-19T16:11:26;96987.72;;;6.17;100.00
596;BME280;19946;49.306;11.350;2023-02-19T16:14:28;96871.59;;;5.36;100.00
596;BME280;19946;49.306;11.350;2023-02-19T16:17:28;96994.88;;;6.12;100.00
596;BME280;19946;49.306;11.350;2023-02-19T16:20:31;96944.94;;;5.72;100.00
596;BME280;19946;49.306;11.350;2023-02-19T16:23:33;96929.75;;;5.67;100.00
596;BME280;19946;49.306;11.350;2023-02-19T16:26:40;97015.38;;;6.13;100.00
596;BME280;19946;49.306;11.350;2023-02-19T16:29:49;96996.03;;;6.06;100.00
596;BME280;19946;49.306;11.350;2023-02-19T16:36:38;96944.50;;;5.64;100.00
596;BME280;19946;49.306;11.350;2023-02-19T16:39:40;97017.59;;;5.90;100.00
596;BME280;19946;49.306;11.350;2023-02-19T16:45:47;97031.31;;;6.04;100.00
596;BME280;19946;49.306;11.350;2023-02-19T16:48:48;96945.53;;;5.61;100.00
596;BME280;19946;49.306;11.350;2023-02-19T16:51:49;97014.88;;;6.07;100.00
596;BME280;19946;49.306;11.350;2023-02-19T16:54:50;97040.25;;;6.13;100.00
596;BME280;19946;49.306;11.350;2023-02-19T16:57:51;97030.22;;;6.08;100.00
596;BME280;19946;49.306;11.350;2023-02-19T17:00:51;96963.91;;;5.69;100.00
596;BME280;19946;49.306;11.350;2023-02-19T17:03:56;96964.44;;;5.74;100.00
596;BME280;19946;49.306;11.350;2023-02-19T17:06:58;96971.16;;;5.77;100.00
596;BME280;19946;49.306;11.350;2023-02-19T17:09:58;96999.34;;;5.78;100.00
596;BME280;19946;49.306;11.350;2023-02-19T17:12:58;96977.34;;;5.59;100.00
596;BME280;19946;49.306;11.350;2023-02-19T17:15:59;96985.22;;;5.56;100.00
596;BME280;19946;49.306;11.350;2023-02-19T17:18:59;97068.47;;;5.99;100.00
596;BME280;19946;49.306;11.350;2023-02-19T17:21:59;97059.38;;;5.93;100.00
596;BME280;19946;49.306;11.350;2023-02-19T17:24:59;97086.75;;;5.94;100.00
596;BME280;19946;49.306;11.350;2023-02-19T17:28:00;97083.66;;;6.03;100.00
596;BME280;19946;49.306;11.350;2023-02-19T17:31:00;97049.47;;;5.85;100.00
596;BME280;19946;49.306;11.350;2023-02-19T17:34:00;97006.88;;;5.52;100.00